createdAt,value
2019-02-28T00:00:53.561Z,101139.59
2019-02-28T00:02:54.967Z,101140.66
2019-02-28T00:04:56.337Z,101139.41
2019-02-28T00:06:57.709Z,101122.80
2019-02-28T00:08:59.109Z,101122.79
2019-02-28T00:11:01.989Z,101122.61
2019-02-28T00:13:03.850Z,101123.26
2019-02-28T00:15:07.830Z,101120.55
2019-02-28T00:17:09.862Z,101112.14
2019-02-28T00:19:11.444Z,101109.64
2019-02-28T00:21:12.832Z,101110.92
2019-02-28T00:23:14.194Z,101108.70
2019-02-28T00:25:15.593Z,101103.72
2019-02-28T00:27:21.024Z,101102.11
2019-02-28T00:29:20.233Z,101100.12
2019-02-28T00:31:21.730Z,101095.38
2019-02-28T00:33:23.137Z,101101.19
2019-02-28T00:35:24.506Z,101107.30
2019-02-28T00:37:25.954Z,101101.77
2019-02-28T00:39:27.373Z,101105.52
2019-02-28T00:41:28.736Z,101098.14
2019-02-28T00:43:30.104Z,101094.34
2019-02-28T00:45:36.334Z,101088.19
2019-02-28T00:47:34.774Z,101088.98
2019-02-28T00:49:36.142Z,101087.37
2019-02-28T00:51:37.718Z,101078.98
2019-02-28T00:53:39.085Z,101079.66
2019-02-28T00:55:40.433Z,101083.25
2019-02-28T00:57:41.829Z,101078.16
2019-02-28T00:59:43.203Z,101073.66
2019-02-28T01:01:46.064Z,101070.05
2019-02-28T01:03:47.891Z,101063.79
2019-02-28T01:05:49.251Z,101059.35
2019-02-28T01:07:50.848Z,101060.50
2019-02-28T01:09:52.263Z,101054.97
2019-02-28T01:11:53.643Z,101055.13
2019-02-28T01:13:55.003Z,101049.20
2019-02-28T01:15:56.405Z,101052.43
2019-02-28T01:18:00.437Z,101051.49
2019-02-28T01:20:01.062Z,101041.70
2019-02-28T01:22:02.607Z,101041.73
2019-02-28T01:24:04.010Z,101039.78
2019-02-28T01:26:05.382Z,101033.91
2019-02-28T01:28:06.784Z,101030.63
2019-02-28T01:30:12.010Z,101025.34
2019-02-28T01:32:15.656Z,101025.73
2019-02-28T01:34:16.663Z,101019.69
2019-02-28T01:36:18.090Z,101012.36
2019-02-28T01:38:19.472Z,101005.75
2019-02-28T01:40:20.887Z,101005.52
2019-02-28T01:42:22.225Z,100999.55
2019-02-28T01:44:23.592Z,100999.87
2019-02-28T01:46:24.997Z,100993.89
2019-02-28T01:48:26.487Z,100995.02
2019-02-28T01:50:29.669Z,100993.45
2019-02-28T01:52:31.130Z,100977.84
2019-02-28T01:54:32.508Z,100985.23
2019-02-28T01:56:34.280Z,100983.09
2019-02-28T01:58:37.151Z,100981.01
2019-02-28T02:00:38.666Z,100974.05
2019-02-28T02:02:40.031Z,100973.31
2019-02-28T02:04:43.157Z,100969.59
2019-02-28T02:06:44.708Z,100970.70
2019-02-28T02:08:46.067Z,100962.52
2019-02-28T02:10:47.434Z,100964.60
2019-02-28T02:12:50.835Z,100967.48
2019-02-28T02:14:52.197Z,100964.93
2019-02-28T02:16:53.554Z,100955.72
2019-02-28T02:18:54.952Z,100951.13
2019-02-28T02:20:57.425Z,100947.12
2019-02-28T02:22:59.624Z,100946.75
2019-02-28T02:25:03.128Z,100943.91
2019-02-28T02:27:04.247Z,100938.97
2019-02-28T02:29:05.638Z,100931.75
2019-02-28T02:31:07.041Z,100937.38
2019-02-28T02:33:13.611Z,100937.23
2019-02-28T02:35:11.697Z,100940.24
2019-02-28T02:37:13.082Z,100934.59
2019-02-28T02:39:17.585Z,100943.48
2019-02-28T02:41:17.820Z,100939.61
2019-02-28T02:43:21.877Z,100937.45
2019-02-28T02:45:22.539Z,100939.42
2019-02-28T02:47:23.935Z,100932.47
2019-02-28T02:49:25.286Z,100927.62
2019-02-28T02:51:26.619Z,100925.47
2019-02-28T02:53:28.014Z,100927.19
2019-02-28T02:55:29.478Z,100927.64
2019-02-28T02:57:30.991Z,100917.80
2019-02-28T02:59:37.272Z,100923.23
2019-02-28T03:01:35.644Z,100924.13
2019-02-28T03:03:42.695Z,100923.21
2019-02-28T03:05:40.324Z,100913.83
2019-02-28T03:07:42.097Z,100910.01
2019-02-28T03:09:44.642Z,100905.32
2019-02-28T03:11:46.259Z,100899.45
2019-02-28T03:13:47.661Z,100896.04
2019-02-28T03:15:48.987Z,100892.88
2019-02-28T03:17:50.367Z,100890.89
2019-02-28T03:19:51.717Z,100885.20
2019-02-28T03:21:53.191Z,100889.56
2019-02-28T03:23:54.618Z,100883.80
2019-02-28T03:25:56.024Z,100881.76
2019-02-28T03:27:57.624Z,100872.77
2019-02-28T03:29:58.993Z,100868.03
2019-02-28T03:32:00.336Z,100866.59
2019-02-28T03:34:10.513Z,100860.02
2019-02-28T03:36:04.972Z,100856.38
2019-02-28T03:38:10.562Z,100856.21
2019-02-28T03:40:11.746Z,100861.92
2019-02-28T03:42:13.109Z,100852.06
2019-02-28T03:44:19.704Z,100854.85
2019-02-28T03:46:17.738Z,100859.39
2019-02-28T03:48:19.180Z,100855.62
2019-02-28T03:50:21.995Z,100858.59
2019-02-28T03:52:23.905Z,100853.02
2019-02-28T03:54:28.895Z,100848.19
2019-02-28T03:56:28.756Z,100842.42
2019-02-28T03:58:30.303Z,100836.81
2019-02-28T04:00:34.009Z,100831.47
2019-02-28T04:02:34.926Z,100826.84
2019-02-28T04:04:36.420Z,100830.77
2019-02-28T04:06:40.827Z,100829.59
2019-02-28T04:08:41.073Z,100824.13
2019-02-28T04:10:42.426Z,100828.80
2019-02-28T04:12:45.618Z,100833.94
2019-02-28T04:14:47.076Z,100840.72
2019-02-28T04:16:52.722Z,100842.23
2019-02-28T04:18:51.768Z,100843.32
2019-02-28T04:20:53.222Z,100841.30
2019-02-28T04:22:58.417Z,100840.48
2019-02-28T04:24:57.839Z,100833.07
2019-02-28T04:27:06.309Z,100831.13
2019-02-28T04:29:02.860Z,100832.29
2019-02-28T04:31:04.211Z,100828.59
2019-02-28T04:33:05.593Z,100826.91
2019-02-28T04:35:07.783Z,100827.63
2019-02-28T04:37:09.714Z,100828.27
2019-02-28T04:39:11.247Z,100826.90
2019-02-28T04:41:12.609Z,100829.69
2019-02-28T04:43:14.052Z,100824.52
2019-02-28T04:45:15.452Z,100817.84
2019-02-28T04:47:16.795Z,100811.48
2019-02-28T04:49:21.463Z,100803.97
2019-02-28T04:51:21.457Z,100803.71
2019-02-28T04:53:22.817Z,100806.98
2019-02-28T04:55:24.214Z,100805.06
2019-02-28T04:57:25.617Z,100805.20
2019-02-28T04:59:26.976Z,100806.77
2019-02-28T05:01:28.356Z,100799.19
2019-02-28T05:03:29.746Z,100797.77
2019-02-28T05:05:31.085Z,100795.55
2019-02-28T05:07:32.448Z,100790.66
2019-02-28T05:09:33.857Z,100787.39
2019-02-28T05:11:35.238Z,100785.73
2019-02-28T05:13:36.607Z,100786.31
2019-02-28T05:15:40.931Z,100787.48
2019-02-28T05:17:41.257Z,100785.24
2019-02-28T05:19:42.600Z,100789.75
2019-02-28T05:21:43.992Z,100793.77
2019-02-28T05:23:45.356Z,100788.22
2019-02-28T05:25:49.122Z,100786.48
2019-02-28T05:27:50.040Z,100783.65
2019-02-28T05:29:51.391Z,100780.92
2019-02-28T05:31:52.836Z,100774.92
2019-02-28T05:33:54.218Z,100769.61
2019-02-28T05:35:57.168Z,100771.63
2019-02-28T05:37:58.920Z,100769.09
2019-02-28T05:40:05.443Z,100771.39
2019-02-28T05:42:03.874Z,100776.61
2019-02-28T05:44:06.235Z,100776.88
2019-02-28T05:46:08.521Z,100778.88
2019-02-28T05:48:09.916Z,100780.87
2019-02-28T05:50:15.095Z,100781.98
2019-02-28T05:52:14.667Z,100777.38
2019-02-28T05:54:17.181Z,100776.37
2019-02-28T05:56:18.751Z,100779.20
2019-02-28T05:58:20.899Z,100770.47
2019-02-28T06:00:24.219Z,100768.86
2019-02-28T06:02:25.735Z,100762.16
2019-02-28T06:04:27.140Z,100759.90
2019-02-28T06:06:28.582Z,100754.11
2019-02-28T06:08:29.947Z,100753.30
2019-02-28T06:10:31.333Z,100751.66
2019-02-28T06:12:32.726Z,100747.05
2019-02-28T06:14:34.069Z,100746.35
2019-02-28T06:16:35.489Z,100741.75
2019-02-28T06:18:36.842Z,100742.05
2019-02-28T06:20:38.242Z,100738.02
2019-02-28T06:22:39.659Z,100743.48
2019-02-28T06:24:41.012Z,100739.01
2019-02-28T06:26:42.380Z,100739.34
2019-02-28T06:28:43.758Z,100742.22
2019-02-28T06:30:45.133Z,100738.09
2019-02-28T06:32:46.563Z,100745.35
2019-02-28T06:34:47.914Z,100739.69
2019-02-28T06:36:49.272Z,100737.77
2019-02-28T06:38:51.503Z,100730.28
2019-02-28T06:40:53.922Z,100729.47
2019-02-28T06:42:55.927Z,100731.93
2019-02-28T06:45:02.017Z,100729.52
2019-02-28T06:47:00.674Z,100742.39
2019-02-28T06:49:06.907Z,100746.40
2019-02-28T06:51:05.358Z,100748.70
2019-02-28T06:53:06.722Z,100744.90
2019-02-28T06:55:12.607Z,100747.14
2019-02-28T06:57:13.955Z,100750.53
2019-02-28T06:59:15.304Z,100754.85
2019-02-28T07:01:19.211Z,100755.81
2019-02-28T07:03:19.968Z,100763.00
2019-02-28T07:05:24.819Z,100759.13
2019-02-28T07:07:24.645Z,100762.69
2019-02-28T07:09:26.020Z,100761.74
2019-02-28T07:11:27.569Z,100754.12
2019-02-28T07:13:28.937Z,100761.92
2019-02-28T07:15:30.302Z,100757.84
2019-02-28T07:17:31.723Z,100754.96
2019-02-28T07:19:33.106Z,100756.80
2019-02-28T07:21:34.688Z,100756.33
2019-02-28T07:23:36.082Z,100742.20
2019-02-28T07:25:37.653Z,100762.36
2019-02-28T07:27:39.001Z,100764.25
2019-02-28T07:29:42.727Z,100758.70
2019-02-28T07:31:43.684Z,100765.38
2019-02-28T07:33:45.300Z,100762.76
2019-02-28T07:35:46.692Z,100766.98
2019-02-28T07:37:53.175Z,100770.15
2019-02-28T07:39:51.353Z,100773.09
2019-02-28T07:41:52.746Z,100771.21
2019-02-28T07:43:54.423Z,100767.80
2019-02-28T07:45:55.762Z,100771.93
2019-02-28T07:47:57.191Z,100766.23
2019-02-28T07:49:58.623Z,100767.25
2019-02-28T07:51:59.989Z,100760.69
2019-02-28T07:54:01.701Z,100764.78
2019-02-28T07:56:03.832Z,100767.45
2019-02-28T07:58:06.679Z,100761.59
2019-02-28T08:00:17.182Z,100758.38
2019-02-28T08:02:16.488Z,100747.22
2019-02-28T08:04:18.406Z,100743.51
2019-02-28T08:06:20.777Z,100742.98
2019-02-28T08:08:23.420Z,100752.25
2019-02-28T08:10:28.399Z,100742.27
2019-02-28T08:12:30.815Z,100739.95
2019-02-28T08:14:32.792Z,100744.64
2019-02-28T08:16:34.801Z,100752.37
2019-02-28T08:18:36.140Z,100754.41
2019-02-28T08:20:37.658Z,100751.86
2019-02-28T08:22:38.999Z,100752.33
2019-02-28T08:24:40.355Z,100750.66
2019-02-28T08:26:43.692Z,100748.67
2019-02-28T08:28:45.039Z,100751.95
2019-02-28T08:30:47.387Z,100760.66
2019-02-28T08:32:48.958Z,100757.53
2019-02-28T08:34:50.361Z,100755.95
2019-02-28T08:36:51.747Z,100759.13
2019-02-28T08:38:53.136Z,100755.52
2019-02-28T08:40:54.575Z,100754.92
2019-02-28T08:42:55.987Z,100751.41
2019-02-28T08:44:59.009Z,100756.73
2019-02-28T08:47:00.693Z,100751.42
2019-02-28T08:49:06.101Z,100752.37
2019-02-28T08:51:05.332Z,100758.09
2019-02-28T08:53:06.745Z,100746.77
2019-02-28T08:55:11.917Z,100754.25
2019-02-28T08:57:13.345Z,100751.08
2019-02-28T08:59:18.489Z,100741.80
2019-02-28T09:01:18.129Z,100749.20
2019-02-28T09:03:19.524Z,100747.06
2019-02-28T09:05:25.655Z,100743.22
2019-02-28T09:07:24.218Z,100738.81
2019-02-28T09:09:25.643Z,100734.70
2019-02-28T09:11:27.084Z,100729.64
2019-02-28T09:13:28.472Z,100729.52
2019-02-28T09:15:31.177Z,100732.50
2019-02-28T09:17:32.864Z,100740.05
2019-02-28T09:19:35.978Z,100749.55
2019-02-28T09:21:37.758Z,100748.77
2019-02-28T09:23:39.135Z,100755.16
2019-02-28T09:25:40.504Z,100751.39
2019-02-28T09:27:42.028Z,100749.08
2019-02-28T09:29:43.382Z,100751.05
2019-02-28T09:31:44.781Z,100743.48
2019-02-28T09:33:46.155Z,100738.51
2019-02-28T09:35:47.526Z,100735.81
2019-02-28T09:37:49.139Z,100739.58
2019-02-28T09:39:51.210Z,100740.45
2019-02-28T09:41:53.866Z,100742.46
2019-02-28T09:43:57.212Z,100736.09
2019-02-28T09:45:58.553Z,100730.59
2019-02-28T09:48:01.967Z,100730.60
2019-02-28T09:50:12.212Z,100730.77
2019-02-28T09:52:13.584Z,100726.56
2019-02-28T09:54:14.976Z,100730.44
2019-02-28T09:56:16.361Z,100726.11
2019-02-28T09:58:17.758Z,100728.06
2019-02-28T10:00:27.521Z,100729.03
2019-02-28T10:02:29.171Z,100720.62
2019-02-28T10:04:31.282Z,100713.09
2019-02-28T10:06:33.338Z,100706.00
2019-02-28T10:08:36.782Z,100706.11
2019-02-28T10:10:38.156Z,100716.70
2019-02-28T10:12:43.115Z,100718.85
2019-02-28T10:14:42.805Z,100716.38
2019-02-28T10:16:44.204Z,100710.30
2019-02-28T10:18:45.743Z,100701.17
2019-02-28T10:20:47.130Z,100709.68
2019-02-28T10:22:48.564Z,100712.62
2019-02-28T10:24:49.986Z,100718.22
2019-02-28T10:26:52.340Z,100713.48
2019-02-28T10:28:53.814Z,100723.71
2019-02-28T10:30:55.240Z,100729.55
2019-02-28T10:32:56.605Z,100727.16
2019-02-28T10:34:58.365Z,100729.52
2019-02-28T10:37:01.317Z,100734.50
2019-02-28T10:39:05.879Z,100738.97
2019-02-28T10:41:08.335Z,100741.87
2019-02-28T10:43:12.145Z,100745.30
2019-02-28T10:45:14.143Z,100739.65
2019-02-28T10:47:15.566Z,100737.45
2019-02-28T10:49:16.982Z,100741.72
2019-02-28T10:51:18.347Z,100743.67
2019-02-28T10:53:19.767Z,100742.33
2019-02-28T10:55:22.619Z,100746.16
2019-02-28T10:57:24.522Z,100737.98
2019-02-28T10:59:25.952Z,100740.41
2019-02-28T11:01:27.437Z,100739.31
2019-02-28T11:03:32.251Z,100745.82
2019-02-28T11:05:35.609Z,100743.46
2019-02-28T11:07:37.705Z,100740.10
2019-02-28T11:09:40.063Z,100737.47
2019-02-28T11:11:42.571Z,100732.64
2019-02-28T11:13:44.832Z,100722.41
2019-02-28T11:15:48.396Z,100726.36
2019-02-28T11:17:49.684Z,100723.86
2019-02-28T11:19:51.979Z,100733.22
2019-02-28T11:21:54.322Z,100727.37
2019-02-28T11:23:55.675Z,100722.84
2019-02-28T11:25:57.731Z,100719.91
2019-02-28T11:27:59.177Z,100726.53
2019-02-28T11:30:00.714Z,100731.25
2019-02-28T11:32:02.089Z,100729.05
2019-02-28T11:34:03.663Z,100720.05
2019-02-28T11:36:05.162Z,100719.55
2019-02-28T11:38:06.652Z,100729.45
2019-02-28T11:40:14.727Z,100726.89
2019-02-28T11:42:16.132Z,100727.94
2019-02-28T11:44:17.497Z,100720.58
2019-02-28T11:46:18.978Z,100724.97
2019-02-28T11:48:24.748Z,100722.69
2019-02-28T11:50:26.143Z,100720.44
2019-02-28T11:52:28.030Z,100715.16
2019-02-28T11:54:29.415Z,100720.81
2019-02-28T11:56:30.804Z,100723.67
2019-02-28T11:58:32.434Z,100720.89
2019-02-28T12:00:36.762Z,100714.05
2019-02-28T12:02:38.180Z,100707.20
2019-02-28T12:04:40.523Z,100708.13
2019-02-28T12:06:42.731Z,100715.47
2019-02-28T12:08:45.076Z,100711.80
2019-02-28T12:10:47.171Z,100706.67
2019-02-28T12:12:48.731Z,100710.78
2019-02-28T12:14:50.249Z,100715.87
2019-02-28T12:16:53.695Z,100716.09
2019-02-28T12:18:55.218Z,100711.71
2019-02-28T12:20:58.623Z,100712.25
2019-02-28T12:23:00.035Z,100710.36
2019-02-28T12:25:04.416Z,100702.41
2019-02-28T12:27:04.725Z,100702.31
2019-02-28T12:29:06.104Z,100699.30
2019-02-28T12:31:07.784Z,100693.38
2019-02-28T12:33:09.172Z,100695.75
2019-02-28T12:35:10.664Z,100693.18
2019-02-28T12:37:12.042Z,100700.87
2019-02-28T12:39:13.548Z,100699.28
2019-02-28T12:41:15.107Z,100693.94
2019-02-28T12:43:16.650Z,100695.77
2019-02-28T12:45:24.477Z,100698.67
2019-02-28T12:47:29.449Z,100697.97
2019-02-28T12:49:30.964Z,100697.98
2019-02-28T12:51:32.368Z,100698.36
2019-02-28T12:53:33.852Z,100705.62
2019-02-28T12:55:38.393Z,100703.12
2019-02-28T12:57:38.656Z,100702.03
2019-02-28T12:59:41.885Z,100699.15
2019-02-28T13:01:43.466Z,100703.32
2019-02-28T13:03:44.959Z,100697.30
2019-02-28T13:05:48.030Z,100698.06
2019-02-28T13:07:49.799Z,100701.02
2019-02-28T13:09:51.521Z,100700.93
2019-02-28T13:11:53.984Z,100691.25
2019-02-28T13:13:55.345Z,100696.36
2019-02-28T13:15:56.890Z,100697.81
2019-02-28T13:17:58.342Z,100702.32
2019-02-28T13:19:59.702Z,100701.83
2019-02-28T13:22:01.087Z,100697.05
2019-02-28T13:24:06.084Z,100690.12
2019-02-28T13:26:06.052Z,100694.83
2019-02-28T13:28:07.468Z,100698.35
2019-02-28T13:30:17.532Z,100699.22
2019-02-28T13:32:18.928Z,100700.12
2019-02-28T13:34:20.318Z,100699.94
2019-02-28T13:36:22.749Z,100696.87
2019-02-28T13:38:24.181Z,100699.16
2019-02-28T13:40:25.664Z,100697.47
2019-02-28T13:42:27.100Z,100700.64
2019-02-28T13:44:31.514Z,100701.80
2019-02-28T13:46:34.001Z,100707.69
2019-02-28T13:48:35.170Z,100703.03
2019-02-28T13:50:36.584Z,100707.50
2019-02-28T13:52:37.982Z,100699.96
2019-02-28T13:54:42.127Z,100708.58
2019-02-28T13:56:42.656Z,100701.95
2019-02-28T13:58:44.029Z,100703.02
2019-02-28T14:00:46.003Z,100696.81
2019-02-28T14:02:49.101Z,100698.59
2019-02-28T14:04:50.502Z,100698.89
2019-02-28T14:06:52.460Z,100695.55
2019-02-28T14:08:55.247Z,100693.42
2019-02-28T14:10:56.613Z,100693.67
2019-02-28T14:12:58.501Z,100697.44
2019-02-28T14:14:59.883Z,100684.92
2019-02-28T14:17:01.980Z,100694.31
2019-02-28T14:19:03.584Z,100687.15
2019-02-28T14:21:04.955Z,100690.03
2019-02-28T14:23:06.453Z,100688.42
2019-02-28T14:25:10.027Z,100694.35
2019-02-28T14:27:11.418Z,100688.71
2019-02-28T14:29:12.768Z,100692.81
2019-02-28T14:31:14.295Z,100691.48
2019-02-28T14:33:16.112Z,100697.42
2019-02-28T14:35:23.017Z,100697.55
2019-02-28T14:37:24.686Z,100696.88
2019-02-28T14:39:26.168Z,100696.62
2019-02-28T14:41:28.101Z,100697.44
2019-02-28T14:43:30.938Z,100690.11
2019-02-28T14:45:42.860Z,100691.19
2019-02-28T14:47:45.689Z,100684.86
2019-02-28T14:49:47.184Z,100682.20
2019-02-28T14:51:48.551Z,100677.28
2019-02-28T14:53:50.129Z,100676.59
2019-02-28T14:55:51.763Z,100677.70
2019-02-28T14:57:55.102Z,100682.41
2019-02-28T14:59:56.460Z,100679.00
2019-02-28T15:01:57.815Z,100676.06
2019-02-28T15:03:59.207Z,100683.70
2019-02-28T15:06:00.621Z,100683.30
2019-02-28T15:08:02.078Z,100683.81
2019-02-28T15:10:11.188Z,100690.31
2019-02-28T15:12:12.748Z,100689.83
2019-02-28T15:14:14.131Z,100696.39
2019-02-28T15:16:15.539Z,100702.94
2019-02-28T15:18:16.899Z,100704.91
2019-02-28T15:20:18.402Z,100705.55
2019-02-28T15:22:21.230Z,100707.00
2019-02-28T15:24:22.928Z,100707.31
2019-02-28T15:26:26.504Z,100708.20
2019-02-28T15:28:27.626Z,100711.95
2019-02-28T15:30:34.847Z,100713.19
2019-02-28T15:32:36.610Z,100710.38
2019-02-28T15:34:41.105Z,100704.10
2019-02-28T15:36:41.277Z,100705.77
2019-02-28T15:38:44.511Z,100701.52
2019-02-28T15:40:46.091Z,100707.18
2019-02-28T15:42:47.472Z,100712.27
2019-02-28T15:44:48.916Z,100714.45
2019-02-28T15:46:50.323Z,100712.59
2019-02-28T15:48:51.824Z,100719.27
2019-02-28T15:50:53.252Z,100711.95
2019-02-28T15:52:55.079Z,100719.13
2019-02-28T15:54:57.747Z,100714.87
2019-02-28T15:56:59.711Z,100712.91
2019-02-28T15:59:01.120Z,100716.45
2019-02-28T16:01:03.188Z,100713.36
2019-02-28T16:03:04.757Z,100714.97
2019-02-28T16:05:08.432Z,100715.55
2019-02-28T16:07:09.623Z,100720.62
2019-02-28T16:09:12.587Z,100721.42
2019-02-28T16:11:14.011Z,100726.22
2019-02-28T16:13:15.419Z,100727.66
2019-02-28T16:15:16.996Z,100729.84
2019-02-28T16:17:18.432Z,100732.52
2019-02-28T16:19:21.937Z,100734.71
2019-02-28T16:21:23.579Z,100740.64
2019-02-28T16:23:27.549Z,100735.67
2019-02-28T16:25:37.076Z,100734.91
2019-02-28T16:27:38.543Z,100743.44
2019-02-28T16:29:39.977Z,100747.31
2019-02-28T16:31:41.641Z,100751.89
2019-02-28T16:33:43.936Z,100748.77
2019-02-28T16:35:46.703Z,100744.15
2019-02-28T16:37:48.386Z,100748.02
2019-02-28T16:39:49.991Z,100748.77
2019-02-28T16:41:51.505Z,100749.33
2019-02-28T16:43:55.529Z,100746.34
2019-02-28T16:45:56.237Z,100744.13
2019-02-28T16:47:59.219Z,100749.31
2019-02-28T16:50:01.131Z,100748.41
2019-02-28T16:52:05.939Z,100749.74
2019-02-28T16:54:05.818Z,100759.50
2019-02-28T16:56:07.233Z,100757.23
2019-02-28T16:58:08.615Z,100763.55
2019-02-28T17:00:13.884Z,100764.69
2019-02-28T17:02:15.317Z,100764.97
2019-02-28T17:04:17.198Z,100764.21
2019-02-28T17:06:19.665Z,100774.78
2019-02-28T17:08:21.081Z,100773.06
2019-02-28T17:10:24.443Z,100774.12
2019-02-28T17:12:28.134Z,100774.90
2019-02-28T17:14:29.669Z,100780.87
2019-02-28T17:16:33.780Z,100786.66
2019-02-28T17:18:37.812Z,100795.86
2019-02-28T17:20:40.718Z,100793.60
2019-02-28T17:22:42.622Z,100793.16
2019-02-28T17:24:46.102Z,100786.12
2019-02-28T17:26:49.228Z,100782.34
2019-02-28T17:28:58.376Z,100783.96
2019-02-28T17:31:18.533Z,100783.84
2019-02-28T17:33:20.137Z,100787.02
2019-02-28T17:35:21.586Z,100800.17
2019-02-28T17:37:25.879Z,100799.91
2019-02-28T17:39:26.547Z,100794.05
2019-02-28T17:41:27.891Z,100790.20
2019-02-28T17:43:29.316Z,100792.64
2019-02-28T17:45:30.993Z,100796.60
2019-02-28T17:48:22.727Z,100796.51
2019-02-28T17:50:39.434Z,100808.66
2019-02-28T17:52:53.539Z,100804.17
2019-02-28T17:55:34.009Z,100806.00
2019-02-28T17:57:48.817Z,100801.48
2019-02-28T18:00:16.134Z,100800.20
2019-02-28T18:02:47.605Z,100802.53
2019-02-28T18:05:29.882Z,100802.06
2019-02-28T18:07:52.888Z,100810.87
2019-02-28T18:10:30.321Z,100808.47
2019-02-28T18:13:00.554Z,100806.73
2019-02-28T18:15:19.590Z,100807.89
2019-02-28T18:18:09.856Z,100813.75
2019-02-28T18:20:33.761Z,100820.67
2019-02-28T18:22:43.572Z,100817.27
2019-02-28T18:24:56.715Z,100817.67
2019-02-28T18:27:43.669Z,100816.73
2019-02-28T18:30:27.542Z,100816.24
2019-02-28T18:32:29.740Z,100819.16
2019-02-28T18:34:33.179Z,100822.41
2019-02-28T18:36:34.579Z,100820.44
2019-02-28T18:38:36.584Z,100824.78
2019-02-28T18:40:38.177Z,100825.47
2019-02-28T18:42:39.530Z,100823.97
2019-02-28T18:44:41.873Z,100825.97
2019-02-28T18:46:43.579Z,100827.15
2019-02-28T18:48:44.940Z,100831.58
2019-02-28T18:50:46.533Z,100839.11
2019-02-28T18:52:47.884Z,100846.21
2019-02-28T18:54:49.240Z,100844.67
2019-02-28T18:56:50.648Z,100844.34
2019-02-28T18:58:52.015Z,100843.73
2019-02-28T19:00:53.443Z,100840.73
2019-02-28T19:02:55.033Z,100847.66
2019-02-28T19:04:56.378Z,100842.78
2019-02-28T19:06:57.758Z,100843.40
2019-02-28T19:08:59.195Z,100843.16
2019-02-28T19:11:00.557Z,100845.69
2019-02-28T19:13:02.006Z,100848.59
2019-02-28T19:15:10.706Z,100848.62
2019-02-28T19:17:12.068Z,100852.22
2019-02-28T19:19:13.467Z,100851.89
2019-02-28T19:21:14.881Z,100850.98
2019-02-28T19:23:16.332Z,100850.55
2019-02-28T19:25:18.122Z,100855.95
2019-02-28T19:27:19.901Z,100850.14
2019-02-28T19:29:21.247Z,100853.36
2019-02-28T19:31:22.869Z,100848.58
2019-02-28T19:33:24.239Z,100853.36
2019-02-28T19:35:25.773Z,100854.22
2019-02-28T19:37:27.295Z,100850.77
2019-02-28T19:39:28.649Z,100845.95
2019-02-28T19:41:29.997Z,100854.27
2019-02-28T19:43:31.423Z,100860.55
2019-02-28T19:45:38.277Z,100855.25
2019-02-28T19:47:39.647Z,100860.58
2019-02-28T19:49:41.067Z,100857.64
2019-02-28T19:51:42.468Z,100864.53
2019-02-28T19:53:43.843Z,100866.67
2019-02-28T19:55:46.017Z,100871.48
2019-02-28T19:57:47.490Z,100873.39
2019-02-28T19:59:48.837Z,100874.72
2019-02-28T20:01:50.510Z,100878.06
2019-02-28T20:03:51.868Z,100881.33
2019-02-28T20:05:53.305Z,100877.05
2019-02-28T20:07:54.786Z,100885.44
2019-02-28T20:09:56.155Z,100885.92
2019-02-28T20:11:57.699Z,100884.30
2019-02-28T20:13:59.154Z,100883.88
2019-02-28T20:16:00.809Z,100882.77
2019-02-28T20:18:02.183Z,100882.52
2019-02-28T20:20:11.815Z,100888.89
2019-02-28T20:22:13.183Z,100897.52
2019-02-28T20:24:14.588Z,100890.81
2019-02-28T20:26:16.035Z,100893.23
2019-02-28T20:28:17.414Z,100894.15
2019-02-28T20:30:21.893Z,100890.63
2019-02-28T20:32:23.310Z,100886.42
2019-02-28T20:34:24.682Z,100899.77
2019-02-28T20:36:26.043Z,100898.80
2019-02-28T20:38:27.823Z,100906.69
2019-02-28T20:40:34.009Z,100901.83
2019-02-28T20:42:35.375Z,100905.63
2019-02-28T20:44:36.794Z,100910.16
2019-02-28T20:46:38.316Z,100909.85
2019-02-28T20:48:39.791Z,100906.17
2019-02-28T20:50:46.286Z,100907.66
2019-02-28T20:52:47.968Z,100906.80
2019-02-28T20:54:49.313Z,100911.30
2019-02-28T20:56:50.656Z,100912.28
2019-02-28T20:58:52.077Z,100926.61
2019-02-28T21:00:53.601Z,100922.81
2019-02-28T21:02:54.985Z,100924.98
2019-02-28T21:04:56.353Z,100915.53
2019-02-28T21:06:57.764Z,100916.88
2019-02-28T21:08:59.142Z,100914.68
2019-02-28T21:11:00.494Z,100918.50
2019-02-28T21:13:01.926Z,100912.97
2019-02-28T21:15:09.996Z,100917.08
2019-02-28T21:17:11.393Z,100921.41
2019-02-28T21:19:12.811Z,100930.53
2019-02-28T21:21:14.158Z,100923.00
2019-02-28T21:23:15.543Z,100918.41
2019-02-28T21:25:17.503Z,100915.77
2019-02-28T21:27:18.899Z,100919.26
2019-02-28T21:29:20.276Z,100913.06
2019-02-28T21:31:21.654Z,100916.59
2019-02-28T21:33:23.039Z,100924.63
2019-02-28T21:35:24.852Z,100917.21
2019-02-28T21:37:26.260Z,100912.65
2019-02-28T21:39:27.631Z,100915.68
2019-02-28T21:41:29.009Z,100912.16
2019-02-28T21:43:30.408Z,100913.30
2019-02-28T21:45:33.590Z,100913.31
2019-02-28T21:47:35.071Z,100915.31
2019-02-28T21:49:36.436Z,100913.34
2019-02-28T21:51:37.814Z,100908.59
2019-02-28T21:53:39.187Z,100909.35
2019-02-28T21:55:40.580Z,100914.79
2019-02-28T21:57:41.955Z,100912.73
2019-02-28T21:59:43.325Z,100912.36
2019-02-28T22:01:44.691Z,100911.73
2019-02-28T22:03:46.095Z,100917.52
2019-02-28T22:05:47.437Z,100918.17
2019-02-28T22:07:48.928Z,100915.00
2019-02-28T22:09:50.279Z,100909.61
2019-02-28T22:11:51.647Z,100902.34
2019-02-28T22:13:53.017Z,100901.49
2019-02-28T22:15:54.397Z,100899.75
2019-02-28T22:17:55.806Z,100899.94
2019-02-28T22:19:57.187Z,100896.46
2019-02-28T22:21:58.608Z,100905.63
2019-02-28T22:23:59.939Z,100906.38
2019-02-28T22:26:01.460Z,100895.39
2019-02-28T22:28:02.816Z,100901.13
2019-02-28T22:30:30.196Z,100895.53
2019-02-28T22:32:33.483Z,100896.05
2019-02-28T22:34:36.735Z,100894.87
2019-02-28T22:36:40.031Z,100903.05
2019-02-28T22:38:41.403Z,100901.08
2019-02-28T22:40:42.798Z,100907.13
2019-02-28T22:42:44.138Z,100906.93
2019-02-28T22:44:45.503Z,100910.77
2019-02-28T22:46:46.999Z,100905.84
2019-02-28T22:48:48.361Z,100906.42
2019-02-28T22:50:49.700Z,100907.77
2019-02-28T22:52:52.404Z,100903.09
2019-02-28T22:54:54.018Z,100899.03
2019-02-28T22:56:55.364Z,100900.64
2019-02-28T22:58:56.703Z,100900.55
2019-02-28T23:01:16.785Z,100897.59
2019-02-28T23:03:19.349Z,100888.12
2019-02-28T23:05:20.719Z,100888.30
2019-02-28T23:07:22.109Z,100892.41
2019-02-28T23:09:23.485Z,100893.95
2019-02-28T23:11:24.879Z,100891.05
2019-02-28T23:13:26.451Z,100889.92
2019-02-28T23:15:27.809Z,100885.56
2019-02-28T23:17:29.185Z,100876.49
2019-02-28T23:19:30.599Z,100872.05
2019-02-28T23:21:31.949Z,100878.32